Time;durP1;ratioP1;P1;durP2;ratioP2;P2;SDS_P1;SDS_P2;PMS_P1;PMS_P2;Temp;Humidity;BMP_temperature;BMP_pressure;BME280_temperature;BME280_humidity;BME280_pressure;Samples;Min_cycle;Max_cycle;Signal;HPM_P1;HPM_P2
2023/09/13 00:02:23;;;;;;;7.07;6.32;;;21.30;86.10;;;;;;5113391;28;20465;-36
2023/09/13 00:04:48;;;;;;;7.18;6.50;;;21.30;86.20;;;;;;5113266;28;20024;-35
2023/09/13 00:07:14;;;;;;;7.20;6.30;;;21.30;86.20;;;;;;5113414;28;20385;-35
2023/09/13 00:09:41;;;;;;;7.30;6.15;;;21.30;86.20;;;;;;5113406;28;20023;-34
2023/09/13 00:12:10;;;;;;;6.72;6.05;;;21.30;86.20;;;;;;5113369;28;20020;-35
2023/09/13 00:14:36;;;;;;;7.50;6.10;;;21.30;86.20;;;;;;5113257;28;20024;-44
2023/09/13 00:17:02;;;;;;;7.00;6.35;;;21.20;86.20;;;;;;5113323;28;20027;-34
2023/09/13 00:19:28;;;;;;;7.53;6.72;;;21.20;86.20;;;;;;5112843;28;20016;-35
2023/09/13 00:21:54;;;;;;;7.20;6.50;;;21.10;86.20;;;;;;5112317;28;20098;-35
2023/09/13 00:24:20;;;;;;;10.38;6.55;;;21.10;86.30;;;;;;5112868;28;20019;-33
2023/09/13 00:26:45;;;;;;;7.18;6.22;;;21.10;86.40;;;;;;5112726;28;20023;-35
2023/09/13 00:29:11;;;;;;;8.60;6.30;;;21.10;86.30;;;;;;5112948;28;20089;-34
2023/09/13 00:31:36;;;;;;;7.78;6.93;;;21.10;86.20;;;;;;5113341;28;20047;-33
2023/09/13 00:34:02;;;;;;;7.20;6.20;;;21.10;86.20;;;;;;5112897;28;20020;-35
2023/09/13 00:36:27;;;;;;;7.50;6.72;;;21.10;86.20;;;;;;5112753;28;20456;-34
2023/09/13 00:38:53;;;;;;;8.20;6.90;;;21.10;86.30;;;;;;5112682;28;20028;-34
2023/09/13 00:41:19;;;;;;;7.65;6.53;;;21.00;86.30;;;;;;5112556;28;20103;-34
2023/09/13 00:43:45;;;;;;;8.18;7.38;;;21.00;86.40;;;;;;5112578;28;20172;-35
2023/09/13 00:46:10;;;;;;;8.82;7.35;;;21.00;86.40;;;;;;5112491;28;20098;-45
2023/09/13 00:48:36;;;;;;;8.13;7.07;;;21.00;86.50;;;;;;5112480;28;20027;-35
2023/09/13 00:51:03;;;;;;;7.85;6.57;;;21.00;86.60;;;;;;5112528;28;20112;-34
2023/09/13 00:53:31;;;;;;;7.50;6.80;;;21.00;86.60;;;;;;5112290;28;20012;-33
2023/09/13 00:55:57;;;;;;;8.15;6.25;;;21.00;86.80;;;;;;5112596;28;20024;-35
2023/09/13 00:58:24;;;;;;;7.57;6.70;;;21.00;86.50;;;;;;5112178;28;20365;-35
2023/09/13 01:00:53;;;;;;;9.05;7.03;;;21.00;86.50;;;;;;5111900;28;20536;-35
2023/09/13 01:03:20;;;;;;;7.60;6.68;;;21.00;86.60;;;;;;5112093;28;20050;-33
2023/09/13 01:05:47;;;;;;;7.78;7.07;;;21.00;86.70;;;;;;5112331;28;20055;-35
2023/09/13 01:08:13;;;;;;;7.57;6.82;;;21.00;86.70;;;;;;5111938;28;20028;-34
2023/09/13 01:10:38;;;;;;;8.30;6.70;;;21.00;86.70;;;;;;5112323;28;20363;-34
2023/09/13 01:13:04;;;;;;;8.48;6.88;;;21.00;86.70;;;;;;5112167;28;20051;-35
2023/09/13 01:15:37;;;;;;;8.00;7.20;;;20.90;86.70;;;;;;5112085;28;20532;-35
2023/09/13 01:18:10;;;;;;;12.60;7.20;;;20.90;86.80;;;;;;5111888;28;20524;-36
2023/09/13 01:21:08;;;;;;;8.68;6.68;;;20.90;86.90;;;;;;5112137;28;20016;-36
2023/09/13 01:24:05;;;;;;;7.40;6.57;;;20.90;87.00;;;;;;5111903;28;20024;-35
2023/09/13 01:26:50;;;;;;;8.63;7.30;;;20.90;87.00;;;;;;5111904;28;20037;-36
2023/09/13 01:29:16;;;;;;;9.27;6.78;;;20.90;87.00;;;;;;5112220;28;20512;-36
2023/09/13 01:31:43;;;;;;;7.47;6.78;;;20.90;87.00;;;;;;5114094;28;20027;-35
2023/09/13 01:34:09;;;;;;;7.78;6.97;;;20.90;87.10;;;;;;5118977;28;20032;-35
2023/09/13 01:36:34;;;;;;;7.90;7.10;;;20.90;87.00;;;;;;5118703;28;20445;-36
2023/09/13 01:39:01;;;;;;;7.63;6.88;;;20.90;86.90;;;;;;5100383;28;20027;-33
2023/09/13 01:41:37;;;;;;;8.38;6.90;;;20.90;86.90;;;;;;5118826;28;20069;-35
2023/09/13 01:44:04;;;;;;;9.18;6.80;;;21.00;86.90;;;;;;5118670;28;20020;-35
2023/09/13 01:46:34;;;;;;;9.70;7.07;;;21.00;86.80;;;;;;5118434;28;20085;-34
2023/09/13 01:49:01;;;;;;;9.93;7.43;;;21.00;86.80;;;;;;5118712;28;20046;-35
2023/09/13 01:51:27;;;;;;;8.55;7.70;;;21.00;86.80;;;;;;5118786;28;20026;-35
2023/09/13 01:53:56;;;;;;;7.75;6.68;;;20.90;86.70;;;;;;5118550;28;20107;-36
2023/09/13 01:56:21;;;;;;;8.93;7.07;;;20.90;86.60;;;;;;5118276;28;20032;-35
2023/09/13 01:58:48;;;;;;;9.80;7.88;;;20.90;86.70;;;;;;5118807;28;20023;-34
2023/09/13 02:01:14;;;;;;;8.68;7.78;;;20.90;86.80;;;;;;5118775;28;20023;-35
2023/09/13 02:03:40;;;;;;;8.80;7.15;;;20.90;86.80;;;;;;5118659;28;20020;-35
2023/09/13 02:06:05;;;;;;;8.40;7.45;;;20.90;86.80;;;;;;5118584;28;20028;-36
2023/09/13 02:08:31;;;;;;;8.30;7.50;;;20.90;86.80;;;;;;5118328;28;20051;-35
2023/09/13 02:10:56;;;;;;;9.13;7.45;;;20.90;86.80;;;;;;5118658;28;20027;-35
2023/09/13 02:13:22;;;;;;;11.45;7.97;;;20.90;86.90;;;;;;5118536;28;20020;-35
2023/09/13 02:15:48;;;;;;;10.98;7.90;;;20.90;86.90;;;;;;5118436;28;20022;-35
2023/09/13 02:18:13;;;;;;;9.35;8.00;;;20.90;87.00;;;;;;5099756;28;20023;-36
2023/09/13 02:20:39;;;;;;;9.30;7.82;;;20.90;87.20;;;;;;5118322;28;20046;-35
2023/09/13 02:23:04;;;;;;;10.38;7.63;;;20.90;87.30;;;;;;5118171;28;20034;-36
2023/09/13 02:25:36;;;;;;;8.57;7.68;;;20.80;87.30;;;;;;5118569;28;20031;-35
2023/09/13 02:28:03;;;;;;;8.73;7.43;;;20.80;88.10;;;;;;5118072;28;20553;-36
2023/09/13 02:30:29;;;;;;;8.75;7.80;;;20.80;87.50;;;;;;5118426;28;20099;-35
2023/09/13 02:32:55;;;;;;;9.68;7.70;;;20.70;87.60;;;;;;5099922;28;20016;-36
2023/09/13 02:35:20;;;;;;;11.45;7.63;;;20.70;87.80;;;;;;5118639;28;20023;-36
2023/09/13 02:37:47;;;;;;;8.27;7.28;;;20.60;87.80;;;;;;5118236;28;20039;-36
2023/09/13 02:40:13;;;;;;;9.45;7.88;;;20.70;87.90;;;;;;5118306;28;20030;-35
2023/09/13 02:42:39;;;;;;;10.48;7.68;;;20.60;87.80;;;;;;5117623;28;20094;-35
2023/09/13 02:45:05;;;;;;;10.68;7.72;;;20.60;87.90;;;;;;5114265;28;20148;-36
2023/09/13 02:47:30;;;;;;;8.95;7.55;;;20.60;87.90;;;;;;5114539;28;20031;-33
2023/09/13 02:49:56;;;;;;;9.20;7.72;;;20.60;88.00;;;;;;5115256;28;20042;-37
2023/09/13 02:52:30;;;;;;;8.30;7.47;;;20.60;88.00;;;;;;5114766;28;20102;-36
2023/09/13 02:54:56;;;;;;;11.07;8.23;;;20.60;88.10;;;;;;5114750;28;20023;-36
2023/09/13 02:57:22;;;;;;;9.93;7.30;;;20.60;88.10;;;;;;5114636;28;20106;-35
2023/09/13 02:59:47;;;;;;;9.27;7.60;;;20.60;88.10;;;;;;5114728;28;20149;-33
2023/09/13 03:02:13;;;;;;;8.38;7.30;;;20.60;88.10;;;;;;5114598;28;20027;-34
2023/09/13 03:04:40;;;;;;;9.30;8.38;;;20.60;88.20;;;;;;5114526;28;20112;-33
2023/09/13 03:07:05;;;;;;;8.80;7.90;;;20.60;88.20;;;;;;5114590;28;20546;-36
2023/09/13 03:09:31;;;;;;;10.10;7.63;;;20.60;88.30;;;;;;5096202;28;20443;-34
2023/09/13 03:11:57;;;;;;;8.82;7.53;;;20.60;88.40;;;;;;5114529;28;20030;-35
2023/09/13 03:14:22;;;;;;;9.32;7.18;;;20.60;88.40;;;;;;5114172;28;20019;-34
2023/09/13 03:16:48;;;;;;;9.75;7.47;;;20.60;88.50;;;;;;5114292;28;20026;-35
2023/09/13 03:19:13;;;;;;;8.85;7.68;;;20.60;88.50;;;;;;5114116;28;20024;-35
2023/09/13 03:21:39;;;;;;;12.00;7.53;;;20.60;88.50;;;;;;5114434;28;20490;-35
2023/09/13 03:24:06;;;;;;;8.88;7.72;;;20.60;88.50;;;;;;5113748;28;20038;-36
2023/09/13 03:26:32;;;;;;;8.20;7.38;;;20.60;88.60;;;;;;5114114;28;20504;-36
2023/09/13 03:28:57;;;;;;;8.45;7.57;;;20.60;88.60;;;;;;5113963;28;20055;-36
2023/09/13 03:31:25;;;;;;;8.00;7.20;;;20.60;88.60;;;;;;5114088;28;20484;-34
2023/09/13 03:33:53;;;;;;;8.45;7.47;;;20.60;88.50;;;;;;5114267;28;20016;-36
2023/09/13 03:36:18;;;;;;;8.32;7.43;;;20.70;88.60;;;;;;5113835;28;20027;-34
2023/09/13 03:38:46;;;;;;;8.23;7.45;;;20.70;88.50;;;;;;5114003;28;20038;-35
2023/09/13 03:41:13;;;;;;;8.63;7.68;;;20.70;89.10;;;;;;5114062;28;20613;-35
2023/09/13 03:43:39;;;;;;;8.77;7.88;;;20.60;89.10;;;;;;5113840;28;20024;-34
2023/09/13 03:46:06;;;;;;;9.57;8.25;;;20.70;88.50;;;;;;5113473;28;20054;-36
2023/09/13 03:48:33;;;;;;;10.25;8.70;;;20.60;89.20;;;;;;5113592;28;20032;-35
2023/09/13 03:50:59;;;;;;;9.15;7.82;;;20.60;88.60;;;;;;5113796;28;20016;-35
2023/09/13 03:53:25;;;;;;;10.63;9.27;;;20.60;88.70;;;;;;5113604;28;20157;-35
2023/09/13 03:55:51;;;;;;;11.40;8.45;;;20.60;88.70;;;;;;5113534;28;20662;-36
2023/09/13 03:58:17;;;;;;;10.55;8.82;;;20.60;88.70;;;;;;5113505;28;20023;-36
2023/09/13 04:00:43;;;;;;;13.55;10.27;;;20.60;88.70;;;;;;5114128;28;20024;-37
2023/09/13 04:03:08;;;;;;;14.77;11.10;;;20.60;88.70;;;;;;5113329;28;20015;-37
2023/09/13 04:05:34;;;;;;;16.95;11.45;;;20.60;88.60;;;;;;5113784;28;20031;-37
2023/09/13 04:08:00;;;;;;;14.70;11.45;;;20.70;88.70;;;;;;5113479;28;20026;-37
2023/09/13 04:10:26;;;;;;;14.07;11.65;;;20.70;88.80;;;;;;5113343;28;20030;-37
2023/09/13 04:12:51;;;;;;;17.02;13.18;;;20.70;88.80;;;;;;5113281;28;20092;-36
2023/09/13 04:15:17;;;;;;;16.90;13.95;;;20.70;88.70;;;;;;5113563;28;20020;-37
2023/09/13 04:17:42;;;;;;;21.08;14.95;;;20.70;88.70;;;;;;5113335;28;20388;-36
2023/09/13 04:20:11;;;;;;;20.33;16.13;;;20.70;88.60;;;;;;5112966;28;20032;-35
2023/09/13 04:22:37;;;;;;;20.35;15.82;;;20.70;88.70;;;;;;5112988;28;20103;-36
2023/09/13 04:25:07;;;;;;;21.85;16.02;;;20.70;88.70;;;;;;5112955;28;20091;-36
2023/09/13 04:27:33;;;;;;;21.67;17.27;;;20.60;88.60;;;;;;5112993;28;20071;-36
2023/09/13 04:29:58;;;;;;;22.83;17.33;;;20.60;88.70;;;;;;5112886;28;20050;-35
2023/09/13 04:32:24;;;;;;;22.77;16.13;;;20.60;88.80;;;;;;5112950;28;20050;-37
2023/09/13 04:34:51;;;;;;;25.83;19.58;;;20.60;88.90;;;;;;5112827;28;20031;-36
2023/09/13 04:37:16;;;;;;;21.95;15.77;;;20.60;88.90;;;;;;5094272;28;20476;-36
2023/09/13 04:39:42;;;;;;;22.98;16.75;;;20.50;88.90;;;;;;5112683;28;20020;-35
2023/09/13 04:42:08;;;;;;;20.63;16.85;;;20.50;89.00;;;;;;5112807;28;20051;-36
2023/09/13 04:44:33;;;;;;;24.98;19.00;;;20.50;89.10;;;;;;5112517;28;20464;-36
2023/09/13 04:46:59;;;;;;;28.67;20.15;;;20.50;89.10;;;;;;5112409;28;20015;-38
2023/09/13 04:49:25;;;;;;;24.92;18.85;;;20.40;89.00;;;;;;5112395;28;20028;-36
2023/09/13 04:51:52;;;;;;;28.55;19.02;;;20.40;89.10;;;;;;5112638;28;20030;-36
2023/09/13 04:54:18;;;;;;;28.52;20.00;;;20.40;89.10;;;;;;5112724;28;20020;-36
2023/09/13 04:56:43;;;;;;;26.70;20.40;;;20.40;89.20;;;;;;5112264;28;20026;-36
2023/09/13 04:59:09;;;;;;;26.15;19.50;;;20.40;89.10;;;;;;5112418;28;20373;-35
2023/09/13 05:01:34;;;;;;;26.55;18.90;;;20.30;89.20;;;;;;5112403;28;20028;-35
2023/09/13 05:04:00;;;;;;;28.02;20.00;;;20.30;89.20;;;;;;5112518;28;20494;-36
2023/09/13 05:06:26;;;;;;;28.65;19.95;;;20.30;89.30;;;;;;5111716;28;20026;-35
2023/09/13 05:08:52;;;;;;;26.23;18.95;;;20.30;89.20;;;;;;5112604;28;20042;-36
2023/09/13 05:11:18;;;;;;;26.30;20.08;;;20.30;89.20;;;;;;5113048;28;20103;-38
2023/09/13 05:13:47;;;;;;;26.98;19.08;;;20.30;89.30;;;;;;5112446;28;20020;-37
2023/09/13 05:16:14;;;;;;;25.77;18.85;;;20.20;89.20;;;;;;5112691;28;20530;-35
2023/09/13 05:18:39;;;;;;;24.83;19.20;;;20.20;89.30;;;;;;5112337;28;20392;-35
2023/09/13 05:21:05;;;;;;;23.92;18.73;;;20.20;89.20;;;;;;5112401;28;20110;-36
2023/09/13 05:23:31;;;;;;;28.65;21.17;;;20.20;89.10;;;;;;5112535;28;20034;-36
2023/09/13 05:25:56;;;;;;;26.25;19.90;;;20.20;89.10;;;;;;5112381;28;20358;-37
2023/09/13 05:28:22;;;;;;;30.48;20.73;;;20.20;89.10;;;;;;5111682;28;20480;-42
2023/09/13 05:30:49;;;;;;;30.35;22.40;;;20.20;89.00;;;;;;5112133;28;20373;-36
2023/09/13 05:33:15;;;;;;;32.40;22.80;;;20.20;89.10;;;;;;5094200;28;20023;-36
2023/09/13 05:35:40;;;;;;;29.05;22.52;;;20.10;89.00;;;;;;5094077;28;20027;-35
2023/09/13 05:38:06;;;;;;;28.67;21.25;;;20.10;89.10;;;;;;5111924;28;20407;-35
2023/09/13 05:40:31;;;;;;;29.33;20.70;;;20.00;89.10;;;;;;5111759;28;20024;-36
2023/09/13 05:42:58;;;;;;;27.13;20.30;;;20.00;89.20;;;;;;5111908;28;20031;-36
2023/09/13 05:45:23;;;;;;;29.42;21.08;;;20.00;89.30;;;;;;5093862;28;20032;-35
2023/09/13 05:47:50;;;;;;;28.38;20.17;;;20.00;89.30;;;;;;5112347;28;20039;-35
2023/09/13 05:50:16;;;;;;;32.45;20.85;;;20.00;89.30;;;;;;5111765;28;20023;-36
2023/09/13 05:52:41;;;;;;;28.70;20.92;;;20.00;89.30;;;;;;5112218;28;20106;-40
2023/09/13 05:55:08;;;;;;;30.85;21.88;;;20.00;89.30;;;;;;5112395;28;20058;-36
2023/09/13 05:57:33;;;;;;;25.05;19.48;;;20.00;89.30;;;;;;5112154;28;20055;-36
2023/09/13 05:59:59;;;;;;;31.25;20.80;;;20.00;89.20;;;;;;5111963;28;20039;-35
2023/09/13 06:02:25;;;;;;;33.13;21.88;;;20.00;89.20;;;;;;5111957;28;20027;-37
2023/09/13 06:04:50;;;;;;;28.67;20.25;;;19.90;89.20;;;;;;5111829;28;20457;-36
2023/09/13 06:07:16;;;;;;;24.67;18.83;;;20.00;89.30;;;;;;5111633;28;20019;-36
2023/09/13 06:09:42;;;;;;;26.25;18.60;;;20.00;89.20;;;;;;5111598;28;20024;-36
2023/09/13 06:12:07;;;;;;;24.15;17.65;;;20.00;89.20;;;;;;5111911;28;20058;-37
2023/09/13 06:14:33;;;;;;;26.65;18.35;;;20.00;89.10;;;;;;5111925;28;20442;-37
2023/09/13 06:16:58;;;;;;;28.40;19.65;;;20.00;89.00;;;;;;5111562;28;20026;-36
2023/09/13 06:19:24;;;;;;;27.67;20.67;;;19.90;88.90;;;;;;5113863;28;20024;-34
2023/09/13 06:21:50;;;;;;;27.27;20.20;;;19.90;89.00;;;;;;5115889;28;20103;-36
2023/09/13 06:24:16;;;;;;;27.45;19.88;;;19.90;89.00;;;;;;5115338;28;20024;-36
2023/09/13 06:26:42;;;;;;;28.67;19.50;;;19.90;89.00;;;;;;5115296;28;20084;-35
2023/09/13 06:29:09;;;;;;;27.25;19.73;;;19.90;88.90;;;;;;5115501;28;20028;-36
2023/09/13 06:31:34;;;;;;;24.58;17.60;;;19.90;88.90;;;;;;5115611;28;20499;-34
2023/09/13 06:34:01;;;;;;;27.23;18.45;;;20.00;89.10;;;;;;5115432;28;20027;-34
2023/09/13 06:36:27;;;;;;;26.23;18.83;;;20.00;89.00;;;;;;5115328;28;20030;-36
2023/09/13 06:38:52;;;;;;;26.13;19.10;;;20.00;88.90;;;;;;5115163;28;20392;-33
2023/09/13 06:41:18;;;;;;;23.00;17.13;;;20.10;89.00;;;;;;5115069;28;20027;-36
2023/09/13 06:43:44;;;;;;;24.10;18.25;;;20.10;88.90;;;;;;5114967;28;20059;-34
2023/09/13 06:46:10;;;;;;;24.65;17.75;;;20.20;88.80;;;;;;5114827;28;20019;-36
2023/09/13 06:48:36;;;;;;;23.40;17.75;;;20.10;88.60;;;;;;5114752;28;20076;-35
2023/09/13 06:51:03;;;;;;;23.70;16.35;;;20.10;88.70;;;;;;5114932;28;20074;-35
2023/09/13 06:53:28;;;;;;;22.98;16.80;;;20.10;88.70;;;;;;5115201;28;20026;-36
2023/09/13 06:55:54;;;;;;;22.02;16.05;;;20.10;88.70;;;;;;5114791;28;20408;-36
2023/09/13 06:58:20;;;;;;;20.50;15.15;;;20.10;88.70;;;;;;5114800;28;20539;-38
2023/09/13 07:00:46;;;;;;;15.43;12.10;;;20.10;88.70;;;;;;5115064;28;20035;-45
2023/09/13 07:03:11;;;;;;;11.93;9.45;;;20.10;88.40;;;;;;5114666;28;20023;-35
2023/09/13 07:05:37;;;;;;;6.63;5.13;;;19.90;87.90;;;;;;5114799;28;20483;-36
2023/09/13 07:08:03;;;;;;;3.42;2.60;;;19.70;87.00;;;;;;5114334;28;20065;-35
2023/09/13 07:10:30;;;;;;;2.75;1.70;;;19.50;85.10;;;;;;5114659;28;20023;-37
2023/09/13 07:12:57;;;;;;;1.92;1.00;;;19.20;85.00;;;;;;5114710;28;20528;-36
2023/09/13 07:15:22;;;;;;;4.20;0.80;;;18.80;84.00;;;;;;5114753;28;20583;-35
2023/09/13 07:17:48;;;;;;;1.17;0.60;;;18.50;83.70;;;;;;5114456;28;20035;-36
2023/09/13 07:20:14;;;;;;;0.82;0.60;;;18.30;84.20;;;;;;5114529;28;20031;-36
2023/09/13 07:22:39;;;;;;;1.13;0.52;;;18.10;84.40;;;;;;5114719;28;20020;-36
2023/09/13 07:25:06;;;;;;;0.73;0.70;;;17.90;84.30;;;;;;5114132;28;20027;-35
2023/09/13 07:27:31;;;;;;;3.03;0.63;;;17.80;84.70;;;;;;5114307;28;20065;-36
2023/09/13 07:29:57;;;;;;;3.10;0.63;;;17.70;85.00;;;;;;5114130;28;20016;-35
2023/09/13 07:32:23;;;;;;;1.05;0.60;;;17.60;84.90;;;;;;5114828;28;20439;-35
2023/09/13 07:34:49;;;;;;;0.73;0.52;;;17.50;85.10;;;;;;5114542;28;20019;-36
2023/09/13 07:37:15;;;;;;;0.75;0.63;;;17.50;86.00;;;;;;5095918;28;20465;-35
2023/09/13 07:39:42;;;;;;;1.52;0.70;;;17.50;85.60;;;;;;5114799;28;20019;-35
2023/09/13 07:42:08;;;;;;;0.50;0.45;;;17.50;85.70;;;;;;5114554;28;20427;-36
2023/09/13 07:44:33;;;;;;;2.03;0.88;;;17.50;85.80;;;;;;5114608;28;20022;-35
2023/09/13 07:46:59;;;;;;;1.50;0.80;;;17.50;85.70;;;;;;5114575;28;20098;-36
2023/09/13 07:49:25;;;;;;;1.55;0.80;;;17.50;86.30;;;;;;5114337;28;20653;-35
2023/09/13 07:51:51;;;;;;;2.42;0.60;;;17.50;85.80;;;;;;5114598;28;20028;-35
2023/09/13 07:54:17;;;;;;;1.08;0.60;;;17.60;85.80;;;;;;5114565;28;20015;-35
2023/09/13 07:56:43;;;;;;;0.60;0.60;;;17.60;85.00;;;;;;5095827;28;20518;-36
2023/09/13 07:59:13;;;;;;;2.17;0.75;;;17.60;85.00;;;;;;5114139;28;20041;-37
2023/09/13 08:01:39;;;;;;;1.33;0.73;;;17.60;85.20;;;;;;5114149;28;20102;-37
2023/09/13 08:04:05;;;;;;;0.98;0.63;;;17.60;85.00;;;;;;5114012;28;20024;-36
2023/09/13 08:06:30;;;;;;;2.53;1.08;;;17.50;85.00;;;;;;5114123;28;20020;-36
2023/09/13 08:08:58;;;;;;;1.75;0.70;;;17.60;84.80;;;;;;5114274;28;20030;-37
2023/09/13 08:11:23;;;;;;;0.90;0.50;;;17.50;84.80;;;;;;5114230;28;20421;-35
2023/09/13 08:13:49;;;;;;;1.63;0.90;;;17.50;85.00;;;;;;5114015;28;20098;-36
2023/09/13 08:16:15;;;;;;;2.65;1.10;;;17.60;85.00;;;;;;5114107;28;20019;-35
2023/09/13 08:18:41;;;;;;;1.65;0.80;;;17.60;85.00;;;;;;5114108;28;20020;-36
2023/09/13 08:21:07;;;;;;;2.13;0.75;;;17.70;84.80;;;;;;5113630;28;20038;-36
2023/09/13 08:23:32;;;;;;;1.05;0.70;;;17.70;84.60;;;;;;5113692;28;20027;-34
2023/09/13 08:25:58;;;;;;;2.30;0.80;;;17.70;84.50;;;;;;5113738;28;20055;-36
2023/09/13 08:28:24;;;;;;;1.20;0.77;;;17.80;84.40;;;;;;5113336;28;20040;-36
2023/09/13 08:30:50;;;;;;;1.85;0.88;;;17.80;84.40;;;;;;5113559;28;20020;-37
2023/09/13 08:33:16;;;;;;;2.10;0.95;;;17.80;84.20;;;;;;5113458;28;20104;-36
2023/09/13 08:35:44;;;;;;;1.45;0.70;;;17.90;84.00;;;;;;5113772;28;20034;-34
2023/09/13 08:38:10;;;;;;;3.20;1.10;;;17.90;83.50;;;;;;5095165;28;20032;-36
2023/09/13 08:40:41;;;;;;;1.20;1.02;;;17.90;83.40;;;;;;5113239;28;20032;-36
2023/09/13 08:43:10;;;;;;;1.10;1.00;;;17.80;83.60;;;;;;5113072;28;20426;-37
2023/09/13 08:45:37;;;;;;;1.95;0.90;;;17.80;83.70;;;;;;5113082;28;20086;-37
2023/09/13 08:48:05;;;;;;;1.77;0.95;;;17.90;83.10;;;;;;5113435;28;20134;-35
2023/09/13 08:50:34;;;;;;;2.95;0.90;;;17.90;83.00;;;;;;5113403;28;20024;-38
2023/09/13 08:53:01;;;;;;;2.38;1.20;;;18.00;82.70;;;;;;5113210;28;20024;-35
2023/09/13 08:55:27;;;;;;;4.60;1.25;;;18.00;82.70;;;;;;5112910;28;20027;-35
2023/09/13 08:57:55;;;;;;;2.38;1.00;;;18.10;82.40;;;;;;5113125;28;20096;-36
2023/09/13 09:00:21;;;;;;;1.80;1.20;;;18.10;82.00;;;;;;5094933;28;20027;-36
2023/09/13 09:02:50;;;;;;;1.92;1.02;;;18.00;82.20;;;;;;5112991;28;20023;-36
2023/09/13 09:05:17;;;;;;;1.42;1.00;;;18.00;82.30;;;;;;5113125;28;20035;-36
2023/09/13 09:07:46;;;;;;;2.90;1.10;;;18.00;81.90;;;;;;5112869;28;20023;-36
2023/09/13 09:10:12;;;;;;;1.13;0.90;;;18.00;81.90;;;;;;5112943;28;20078;-34
2023/09/13 09:12:43;;;;;;;2.33;1.00;;;18.00;81.80;;;;;;5112940;28;20088;-36
2023/09/13 09:15:11;;;;;;;3.75;0.88;;;18.10;81.40;;;;;;5112884;28;20392;-36
2023/09/13 09:17:38;;;;;;;1.90;0.90;;;18.10;81.50;;;;;;5112589;28;20023;-36
2023/09/13 09:20:04;;;;;;;2.22;1.00;;;18.20;81.50;;;;;;5112797;28;20024;-34
2023/09/13 09:22:30;;;;;;;1.33;0.90;;;18.30;81.20;;;;;;5112836;28;20038;-34
2023/09/13 09:25:17;;;;;;;2.20;0.80;;;18.30;80.90;;;;;;5112632;28;20062;-35
2023/09/13 09:27:44;;;;;;;2.13;0.80;;;18.50;81.00;;;;;;5112436;28;20044;-36
2023/09/13 09:30:14;;;;;;;1.80;1.00;;;18.60;80.30;;;;;;5112835;28;20437;-36
2023/09/13 09:32:40;;;;;;;1.38;1.10;;;18.60;80.10;;;;;;5112898;28;20052;-37
2023/09/13 09:35:07;;;;;;;0.90;0.70;;;18.70;79.50;;;;;;5112585;28;20141;-36
2023/09/13 09:37:33;;;;;;;2.35;0.90;;;18.80;79.40;;;;;;5112484;28;20047;-36
2023/09/13 09:39:59;;;;;;;1.52;0.70;;;18.90;78.80;;;;;;5112871;28;20053;-36
2023/09/13 09:42:25;;;;;;;1.83;0.80;;;18.90;78.90;;;;;;5112549;28;20101;-43
2023/09/13 09:44:52;;;;;;;1.35;0.70;;;19.10;78.80;;;;;;5112472;28;20028;-37
2023/09/13 09:47:18;;;;;;;1.67;0.95;;;19.20;78.20;;;;;;5112264;28;20028;-35
2023/09/13 09:49:46;;;;;;;2.08;0.88;;;19.30;78.20;;;;;;5112579;28;20081;-36
2023/09/13 09:52:13;;;;;;;1.13;0.70;;;19.50;77.30;;;;;;5112578;28;20034;-35
2023/09/13 09:54:39;;;;;;;1.25;0.80;;;19.50;76.50;;;;;;5116578;28;20096;-39
2023/09/13 09:57:05;;;;;;;0.98;0.68;;;19.60;76.30;;;;;;5116377;28;20059;-35
2023/09/13 09:59:34;;;;;;;2.63;1.02;;;19.50;76.00;;;;;;5116590;28;20373;-32
2023/09/13 10:02:01;;;;;;;2.97;0.75;;;19.60;75.70;;;;;;5116608;28;20068;-36
2023/09/13 10:04:27;;;;;;;1.20;0.82;;;19.60;74.70;;;;;;5116342;28;20035;-34
2023/09/13 10:07:03;;;;;;;1.63;1.10;;;19.70;75.40;;;;;;5116227;28;20035;-36
2023/09/13 10:09:43;;;;;;;1.98;0.90;;;19.80;75.10;;;;;;5116378;28;20046;-37
2023/09/13 10:12:10;;;;;;;2.08;0.90;;;19.90;74.60;;;;;;5116268;28;20024;-36
2023/09/13 10:14:41;;;;;;;1.98;1.10;;;20.00;74.80;;;;;;5116134;28;20489;-35
2023/09/13 10:17:09;;;;;;;2.00;1.02;;;20.20;74.90;;;;;;5116152;28;20041;-35
2023/09/13 10:19:35;;;;;;;1.95;1.20;;;20.30;74.20;;;;;;5116116;28;20027;-34
2023/09/13 10:22:02;;;;;;;2.45;1.15;;;20.40;73.10;;;;;;5097967;28;20429;-36
2023/09/13 10:24:39;;;;;;;2.63;1.35;;;20.40;73.00;;;;;;5116100;28;20023;-36
2023/09/13 10:27:08;;;;;;;2.22;1.20;;;20.30;72.20;;;;;;5115952;28;20501;-36
2023/09/13 10:29:53;;;;;;;2.03;1.30;;;20.30;72.30;;;;;;5116081;28;20503;-34
2023/09/13 10:32:22;;;;;;;2.60;1.48;;;20.20;72.00;;;;;;5115927;28;20107;-35
2023/09/13 10:34:53;;;;;;;2.38;1.33;;;20.20;71.50;;;;;;5116174;28;20020;-36
2023/09/13 10:37:42;;;;;;;2.28;1.42;;;20.20;71.60;;;;;;5115959;28;20024;-36
2023/09/13 10:40:20;;;;;;;2.45;1.35;;;20.30;71.00;;;;;;5115881;28;20358;-36
2023/09/13 10:42:46;;;;;;;2.50;1.15;;;20.40;71.00;;;;;;5115825;28;20129;-36
2023/09/13 10:45:18;;;;;;;2.47;1.33;;;20.50;71.00;;;;;;5115479;28;20059;-34
2023/09/13 10:47:45;;;;;;;3.03;1.33;;;20.60;71.00;;;;;;5097347;28;20042;-34
2023/09/13 10:50:10;;;;;;;4.20;2.33;;;20.70;70.60;;;;;;5115732;28;20519;-37
2023/09/13 10:52:37;;;;;;;2.25;1.40;;;20.70;70.50;;;;;;5115458;28;20024;-36
2023/09/13 10:55:06;;;;;;;2.00;1.33;;;20.60;69.90;;;;;;5115477;28;20537;-36
2023/09/13 10:57:33;;;;;;;4.78;1.65;;;20.50;70.20;;;;;;5115389;28;20028;-36
2023/09/13 10:59:59;;;;;;;2.65;1.40;;;20.40;70.20;;;;;;5115555;28;20031;-37
2023/09/13 11:02:26;;;;;;;3.55;1.40;;;20.30;70.40;;;;;;5115427;28;20028;-35
2023/09/13 11:04:52;;;;;;;3.22;1.48;;;20.30;70.10;;;;;;5114394;28;20054;-36
2023/09/13 11:07:18;;;;;;;4.40;1.40;;;20.30;70.20;;;;;;5096892;28;20051;-36
2023/09/13 11:09:45;;;;;;;2.08;1.50;;;20.20;69.90;;;;;;5115188;28;20041;-36
2023/09/13 11:12:12;;;;;;;3.08;1.52;;;20.10;70.00;;;;;;5115197;28;20119;-37
2023/09/13 11:14:46;;;;;;;2.97;1.50;;;20.00;70.30;;;;;;5115158;28;20072;-37
2023/09/13 11:17:37;;;;;;;3.90;1.40;;;20.00;70.50;;;;;;5115069;28;20027;-36
2023/09/13 11:20:21;;;;;;;4.13;1.50;;;20.00;70.60;;;;;;5114901;28;20039;-37
2023/09/13 11:23:08;;;;;;;3.08;1.40;;;20.00;70.70;;;;;;5114910;28;20062;-36
2023/09/13 11:25:42;;;;;;;4.88;1.58;;;20.00;70.60;;;;;;5114941;28;20053;-35
2023/09/13 11:28:26;;;;;;;3.50;1.70;;;20.00;70.60;;;;;;5096335;28;20036;-36
2023/09/13 11:30:52;;;;;;;4.63;1.70;;;20.00;70.70;;;;;;5114764;28;20028;-35
2023/09/13 11:33:18;;;;;;;3.60;1.50;;;20.00;70.90;;;;;;5114578;28;20026;-36
2023/09/13 11:35:44;;;;;;;2.40;1.50;;;20.00;70.90;;;;;;5114685;28;20102;-36
2023/09/13 11:38:13;;;;;;;2.58;1.20;;;20.00;70.80;;;;;;5114603;28;20034;-36
2023/09/13 11:40:47;;;;;;;2.17;1.10;;;20.00;71.20;;;;;;5114707;28;20129;-36
2023/09/13 11:43:19;;;;;;;2.65;1.00;;;20.20;70.70;;;;;;5114566;28;20488;-36
2023/09/13 11:45:51;;;;;;;3.42;1.40;;;20.40;70.40;;;;;;5114260;28;20046;-34
2023/09/13 11:48:21;;;;;;;2.13;1.20;;;20.60;69.20;;;;;;5114209;28;20016;-35
2023/09/13 11:50:51;;;;;;;4.15;1.30;;;20.80;69.00;;;;;;5114376;28;20027;-35
2023/09/13 11:53:19;;;;;;;3.08;1.20;;;21.00;68.60;;;;;;5114343;28;20125;-34
2023/09/13 11:55:58;;;;;;;3.22;1.17;;;21.10;67.70;;;;;;5114058;28;20621;-34
2023/09/13 11:58:47;;;;;;;2.63;1.08;;;21.00;68.00;;;;;;5114004;28;20050;-35
2023/09/13 12:01:12;;;;;;;3.63;1.60;;;21.00;68.60;;;;;;5114285;28;20031;-35
2023/09/13 12:03:41;;;;;;;2.55;0.90;;;21.00;68.70;;;;;;5114124;28;20038;-35
2023/09/13 12:06:08;;;;;;;1.60;1.10;;;21.10;68.50;;;;;;5113903;28;20038;-34
2023/09/13 12:08:37;;;;;;;1.85;1.00;;;21.20;68.20;;;;;;5113884;28;20039;-35
2023/09/13 12:11:10;;;;;;;2.08;1.08;;;21.30;68.00;;;;;;5114010;28;20016;-35
2023/09/13 12:13:48;;;;;;;3.67;1.02;;;21.40;67.70;;;;;;5114085;28;20477;-35
2023/09/13 12:16:15;;;;;;;2.50;1.08;;;21.50;68.00;;;;;;5095395;28;20016;-34
2023/09/13 12:18:42;;;;;;;2.38;1.00;;;21.60;67.40;;;;;;5113863;28;20055;-36
2023/09/13 12:21:10;;;;;;;3.03;0.95;;;21.60;66.80;;;;;;5113785;28;20064;-34
2023/09/13 12:23:43;;;;;;;3.30;1.20;;;21.70;66.90;;;;;;5114017;28;20031;-37
2023/09/13 12:26:10;;;;;;;;;;;21.90;66.10;;;;;;5114102;28;20036;-36
2023/09/13 12:28:39;;;;;;;2.40;1.30;;;21.80;66.50;;;;;;5113561;28;19973;-34
2023/09/13 12:31:06;;;;;;;1.48;1.08;;;21.70;66.50;;;;;;5113687;28;20341;-33
2023/09/13 12:33:34;;;;;;;2.75;1.25;;;21.50;66.10;;;;;;5113665;28;20084;-35
2023/09/13 12:36:01;;;;;;;1.58;1.00;;;21.30;66.20;;;;;;5113940;28;20517;-35
2023/09/13 12:38:43;;;;;;;1.48;1.08;;;21.10;66.50;;;;;;5113682;28;20059;-35
2023/09/13 12:41:12;;;;;;;2.00;1.05;;;20.90;67.30;;;;;;5113681;28;20042;-36
2023/09/13 12:43:40;;;;;;;1.55;0.90;;;20.80;68.10;;;;;;5113525;28;20039;-36